sensor_id;sensor_type;location;lat;lon;timestamp;pressure;altitude;pressure_sealevel;temperature;humidity
64368;BME280;50692;53.314;-6.300;2023-03-24T00:00:25;98286.59;;;7.88;73.37
64368;BME280;50692;53.314;-6.300;2023-03-24T00:03:09;98295.44;;;7.87;73.27
64368;BME280;50692;53.314;-6.300;2023-03-24T00:05:58;98287.34;;;7.79;72.79
64368;BME280;50692;53.314;-6.300;2023-03-24T00:08:44;98306.78;;;7.88;72.49
64368;BME280;50692;53.314;-6.300;2023-03-24T00:11:32;98309.91;;;7.93;72.51
64368;BME280;50692;53.314;-6.300;2023-03-24T00:14:21;98297.81;;;7.90;72.64
64368;BME280;50692;53.314;-6.300;2023-03-24T00:17:12;98305.84;;;7.89;72.54
64368;BME280;50692;53.314;-6.300;2023-03-24T00:20:18;98310.59;;;7.95;72.77
64368;BME280;50692;53.314;-6.300;2023-03-24T00:23:04;98326.13;;;7.98;72.84
64368;BME280;50692;53.314;-6.300;2023-03-24T00:26:08;98312.78;;;7.90;73.22
64368;BME280;50692;53.314;-6.300;2023-03-24T00:28:55;98310.59;;;7.95;73.26
64368;BME280;50692;53.314;-6.300;2023-03-24T00:31:40;98302.63;;;7.85;73.34
64368;BME280;50692;53.314;-6.300;2023-03-24T00:34:26;98326.88;;;7.89;73.39
64368;BME280;50692;53.314;-6.300;2023-03-24T00:37:11;98332.22;;;7.99;73.51
64368;BME280;50692;53.314;-6.300;2023-03-24T00:39:58;98347.19;;;7.98;73.63
64368;BME280;50692;53.314;-6.300;2023-03-24T00:42:44;98299.66;;;7.79;73.10
64368;BME280;50692;53.314;-6.300;2023-03-24T00:45:30;98315.41;;;7.90;73.22
64368;BME280;50692;53.314;-6.300;2023-03-24T00:48:18;98326.63;;;8.03;73.09
64368;BME280;50692;53.314;-6.300;2023-03-24T00:51:04;98320.97;;;8.08;72.95
64368;BME280;50692;53.314;-6.300;2023-03-24T00:53:50;98306.06;;;7.97;72.87
64368;BME280;50692;53.314;-6.300;2023-03-24T00:56:40;98311.91;;;8.01;72.76
64368;BME280;50692;53.314;-6.300;2023-03-24T00:59:27;98322.78;;;8.07;72.63
64368;BME280;50692;53.314;-6.300;2023-03-24T01:02:17;98331.25;;;8.11;72.45
64368;BME280;50692;53.314;-6.300;2023-03-24T01:05:28;98331.84;;;8.14;72.93
64368;BME280;50692;53.314;-6.300;2023-03-24T01:08:17;98319.34;;;7.96;73.46
64368;BME280;50692;53.314;-6.300;2023-03-24T01:11:08;98310.84;;;8.03;73.74
64368;BME280;50692;53.314;-6.300;2023-03-24T01:13:54;98334.22;;;8.17;73.49
64368;BME280;50692;53.314;-6.300;2023-03-24T01:16:39;98319.53;;;8.15;73.63
64368;BME280;50692;53.314;-6.300;2023-03-24T01:19:25;98300.50;;;8.11;73.83
64368;BME280;50692;53.314;-6.300;2023-03-24T01:22:10;98328.44;;;8.24;73.86
64368;BME280;50692;53.314;-6.300;2023-03-24T01:24:56;98296.84;;;8.03;74.49
64368;BME280;50692;53.314;-6.300;2023-03-24T01:27:41;98324.50;;;8.29;74.48
64368;BME280;50692;53.314;-6.300;2023-03-24T01:30:28;98328.69;;;8.32;74.33
64368;BME280;50692;53.314;-6.300;2023-03-24T01:33:16;98339.91;;;8.34;74.52
64368;BME280;50692;53.314;-6.300;2023-03-24T01:36:01;98335.16;;;8.39;74.38
64368;BME280;50692;53.314;-6.300;2023-03-24T01:38:46;98311.25;;;8.20;74.13
64368;BME280;50692;53.314;-6.300;2023-03-24T01:41:37;98349.22;;;8.49;73.76
64368;BME280;50692;53.314;-6.300;2023-03-24T01:44:34;98347.28;;;8.51;73.51
64368;BME280;50692;53.314;-6.300;2023-03-24T01:47:19;98350.50;;;8.55;73.21
64368;BME280;50692;53.314;-6.300;2023-03-24T01:49:53;98347.69;;;8.47;73.58
64368;BME280;50692;53.314;-6.300;2023-03-24T01:52:40;98361.19;;;8.53;73.59
64368;BME280;50692;53.314;-6.300;2023-03-24T01:55:28;98358.66;;;8.52;74.16
64368;BME280;50692;53.314;-6.300;2023-03-24T01:58:14;98366.22;;;8.45;74.62
64368;BME280;50692;53.314;-6.300;2023-03-24T02:00:59;98361.53;;;8.49;74.90
64368;BME280;50692;53.314;-6.300;2023-03-24T02:03:44;98331.91;;;8.35;75.12
64368;BME280;50692;53.314;-6.300;2023-03-24T02:06:31;98359.50;;;8.52;75.35
64368;BME280;50692;53.314;-6.300;2023-03-24T02:09:15;98355.56;;;8.47;75.84
64368;BME280;50692;53.314;-6.300;2023-03-24T02:12:00;98361.19;;;8.53;76.29
64368;BME280;50692;53.314;-6.300;2023-03-24T02:14:45;98347.94;;;8.44;76.23
64368;BME280;50692;53.314;-6.300;2023-03-24T02:17:35;98350.75;;;8.52;76.11
64368;BME280;50692;53.314;-6.300;2023-03-24T02:26:51;98356.84;;;8.52;75.28
64368;BME280;50692;53.314;-6.300;2023-03-24T02:39:42;98341.19;;;8.51;74.29
64368;BME280;50692;53.314;-6.300;2023-03-24T02:46:16;98336.06;;;8.49;74.42
64368;BME280;50692;53.314;-6.300;2023-03-24T02:55:39;98335.22;;;8.49;73.97
64368;BME280;50692;53.314;-6.300;2023-03-24T02:58:58;98329.50;;;8.32;74.04
64368;BME280;50692;53.314;-6.300;2023-03-24T03:01:52;98345.63;;;8.50;74.15
64368;BME280;50692;53.314;-6.300;2023-03-24T03:04:46;98359.53;;;8.41;74.44
64368;BME280;50692;53.314;-6.300;2023-03-24T03:07:35;98336.19;;;8.36;74.73
64368;BME280;50692;53.314;-6.300;2023-03-24T03:10:24;98335.59;;;8.44;74.67
64368;BME280;50692;53.314;-6.300;2023-03-24T03:13:18;98347.09;;;8.43;75.03
64368;BME280;50692;53.314;-6.300;2023-03-24T03:16:08;98340.28;;;8.40;74.86
64368;BME280;50692;53.314;-6.300;2023-03-24T03:18:58;98348.63;;;8.34;74.99
64368;BME280;50692;53.314;-6.300;2023-03-24T03:21:45;98332.53;;;8.28;74.90
64368;BME280;50692;53.314;-6.300;2023-03-24T03:24:43;98343.25;;;8.36;74.94
64368;BME280;50692;53.314;-6.300;2023-03-24T03:27:30;98283.94;;;8.00;74.97
64368;BME280;50692;53.314;-6.300;2023-03-24T03:30:39;98344.91;;;8.37;74.60
64368;BME280;50692;53.314;-6.300;2023-03-24T03:33:30;98342.53;;;8.34;74.76
64368;BME280;50692;53.314;-6.300;2023-03-24T03:36:27;98317.09;;;8.23;74.75
64368;BME280;50692;53.314;-6.300;2023-03-24T03:39:21;98328.44;;;8.35;74.78
64368;BME280;50692;53.314;-6.300;2023-03-24T03:42:08;98329.31;;;8.24;75.09
64368;BME280;50692;53.314;-6.300;2023-03-24T03:44:53;98323.53;;;8.30;75.25
64368;BME280;50692;53.314;-6.300;2023-03-24T03:47:37;98320.78;;;8.32;75.23
64368;BME280;50692;53.314;-6.300;2023-03-24T03:50:22;98303.34;;;8.20;75.23
64368;BME280;50692;53.314;-6.300;2023-03-24T03:53:08;98323.03;;;8.36;75.10
64368;BME280;50692;53.314;-6.300;2023-03-24T03:55:52;98328.44;;;8.35;75.00
64368;BME280;50692;53.314;-6.300;2023-03-24T03:58:37;98338.22;;;8.44;74.82
64368;BME280;50692;53.314;-6.300;2023-03-24T04:01:24;98344.81;;;8.50;74.80
64368;BME280;50692;53.314;-6.300;2023-03-24T04:04:32;98325.25;;;8.52;74.64
64368;BME280;50692;53.314;-6.300;2023-03-24T04:20:29;98332.16;;;8.64;73.71
64368;BME280;50692;53.314;-6.300;2023-03-24T04:23:54;98347.47;;;8.71;73.38
64368;BME280;50692;53.314;-6.300;2023-03-24T04:26:59;98333.72;;;8.67;73.40
64368;BME280;50692;53.314;-6.300;2023-03-24T04:33:13;98340.41;;;8.71;73.30
64368;BME280;50692;53.314;-6.300;2023-03-24T04:36:05;98322.63;;;8.52;72.79
64368;BME280;50692;53.314;-6.300;2023-03-24T04:39:02;98333.06;;;8.75;72.66
64368;BME280;50692;53.314;-6.300;2023-03-24T04:41:48;98327.72;;;8.65;72.57
64368;BME280;50692;53.314;-6.300;2023-03-24T04:44:33;98327.81;;;8.75;72.92
64368;BME280;50692;53.314;-6.300;2023-03-24T04:47:21;98332.50;;;8.71;73.18
64368;BME280;50692;53.314;-6.300;2023-03-24T04:50:09;98342.88;;;8.73;73.03
64368;BME280;50692;53.314;-6.300;2023-03-24T04:52:57;98342.88;;;8.73;72.92
64368;BME280;50692;53.314;-6.300;2023-03-24T04:58:33;98334.16;;;8.72;73.45
64368;BME280;50692;53.314;-6.300;2023-03-24T05:01:18;98337.69;;;8.61;73.61
64368;BME280;50692;53.314;-6.300;2023-03-24T05:04:05;98339.03;;;8.77;73.89
64368;BME280;50692;53.314;-6.300;2023-03-24T05:06:50;98349.31;;;8.80;73.69
64368;BME280;50692;53.314;-6.300;2023-03-24T05:09:35;98338.13;;;8.67;73.99
64368;BME280;50692;53.314;-6.300;2023-03-24T05:12:19;98338.13;;;8.67;73.91
64368;BME280;50692;53.314;-6.300;2023-03-24T05:15:04;98362.47;;;8.80;74.26
64368;BME280;50692;53.314;-6.300;2023-03-24T05:17:49;98360.09;;;8.77;74.47
64368;BME280;50692;53.314;-6.300;2023-03-24T05:20:35;98364.19;;;8.70;74.84
64368;BME280;50692;53.314;-6.300;2023-03-24T05:23:21;98341.03;;;8.63;75.13
64368;BME280;50692;53.314;-6.300;2023-03-24T05:26:05;98364.34;;;8.68;75.13
64368;BME280;50692;53.314;-6.300;2023-03-24T05:28:49;98343.53;;;8.65;75.23
64368;BME280;50692;53.314;-6.300;2023-03-24T05:31:33;98345.91;;;8.68;75.24
64368;BME280;50692;53.314;-6.300;2023-03-24T05:34:17;98337.59;;;8.52;75.17
64368;BME280;50692;53.314;-6.300;2023-03-24T05:37:02;98360.50;;;8.72;75.36
64368;BME280;50692;53.314;-6.300;2023-03-24T05:39:46;98354.66;;;8.69;75.11
64368;BME280;50692;53.314;-6.300;2023-03-24T05:42:31;98348.34;;;8.60;75.44
64368;BME280;50692;53.314;-6.300;2023-03-24T05:45:15;98372.00;;;8.71;75.87
64368;BME280;50692;53.314;-6.300;2023-03-24T05:47:53;98367.31;;;8.75;75.89
64368;BME280;50692;53.314;-6.300;2023-03-24T05:50:37;98357.78;;;8.62;76.25
64368;BME280;50692;53.314;-6.300;2023-03-24T05:53:21;98332.91;;;8.55;75.99
64368;BME280;50692;53.314;-6.300;2023-03-24T05:56:06;98358.44;;;8.76;75.82
64368;BME280;50692;53.314;-6.300;2023-03-24T05:58:54;98377.59;;;8.78;75.90
64368;BME280;50692;53.314;-6.300;2023-03-24T06:01:40;98389.66;;;8.80;75.65
64368;BME280;50692;53.314;-6.300;2023-03-24T06:04:27;98358.63;;;8.84;75.31
64368;BME280;50692;53.314;-6.300;2023-03-24T06:07:13;98364.38;;;8.89;74.93
64368;BME280;50692;53.314;-6.300;2023-03-24T06:09:59;98368.84;;;8.77;75.16
64368;BME280;50692;53.314;-6.300;2023-03-24T06:12:50;98375.66;;;8.80;75.17
64368;BME280;50692;53.314;-6.300;2023-03-24T06:15:35;98373.34;;;8.86;75.00
64368;BME280;50692;53.314;-6.300;2023-03-24T06:18:22;98364.03;;;8.82;75.06
64368;BME280;50692;53.314;-6.300;2023-03-24T06:21:07;98321.44;;;8.56;74.95
64368;BME280;50692;53.314;-6.300;2023-03-24T06:23:51;98361.84;;;8.87;74.80
64368;BME280;50692;53.314;-6.300;2023-03-24T06:26:35;98313.84;;;8.63;74.64
64368;BME280;50692;53.314;-6.300;2023-03-24T06:29:19;98357.53;;;8.86;74.48
64368;BME280;50692;53.314;-6.300;2023-03-24T06:32:03;98347.50;;;8.80;74.51
64368;BME280;50692;53.314;-6.300;2023-03-24T06:34:48;98375.84;;;8.88;74.37
64368;BME280;50692;53.314;-6.300;2023-03-24T06:37:32;98375.34;;;8.94;74.35
64368;BME280;50692;53.314;-6.300;2023-03-24T06:40:16;98368.59;;;8.80;74.80
64368;BME280;50692;53.314;-6.300;2023-03-24T06:43:01;98388.06;;;8.89;74.63
64368;BME280;50692;53.314;-6.300;2023-03-24T06:45:46;98402.91;;;8.90;74.81
64368;BME280;50692;53.314;-6.300;2023-03-24T06:48:32;98401.88;;;8.81;75.11
64368;BME280;50692;53.314;-6.300;2023-03-24T06:51:16;98411.19;;;8.85;75.39
64368;BME280;50692;53.314;-6.300;2023-03-24T06:54:01;98414.03;;;8.94;75.43
64368;BME280;50692;53.314;-6.300;2023-03-24T06:56:46;98425.97;;;8.98;75.44
64368;BME280;50692;53.314;-6.300;2023-03-24T06:59:30;98431.72;;;9.03;75.60
64368;BME280;50692;53.314;-6.300;2023-03-24T07:02:15;98413.13;;;9.04;75.53
64368;BME280;50692;53.314;-6.300;2023-03-24T07:05:01;98423.28;;;9.09;75.76
64368;BME280;50692;53.314;-6.300;2023-03-24T07:07:51;98426.97;;;9.18;75.42
64368;BME280;50692;53.314;-6.300;2023-03-24T07:10:37;98432.75;;;9.11;75.64
64368;BME280;50692;53.314;-6.300;2023-03-24T07:13:22;98412.41;;;9.02;75.35
64368;BME280;50692;53.314;-6.300;2023-03-24T07:16:07;98432.09;;;9.19;75.40
64368;BME280;50692;53.314;-6.300;2023-03-24T07:18:52;98413.56;;;9.09;75.56
64368;BME280;50692;53.314;-6.300;2023-03-24T07:21:36;98395.03;;;9.11;75.14
64368;BME280;50692;53.314;-6.300;2023-03-24T07:24:21;98415.72;;;9.16;75.04
64368;BME280;50692;53.314;-6.300;2023-03-24T07:27:06;98427.16;;;9.26;74.72
64368;BME280;50692;53.314;-6.300;2023-03-24T07:29:51;98423.22;;;9.20;74.63
64368;BME280;50692;53.314;-6.300;2023-03-24T07:32:36;98437.31;;;9.30;74.66
64368;BME280;50692;53.314;-6.300;2023-03-24T07:35:22;98407.94;;;9.14;74.62
64368;BME280;50692;53.314;-6.300;2023-03-24T07:38:07;98438.84;;;9.33;74.64
64368;BME280;50692;53.314;-6.300;2023-03-24T07:40:56;98412.88;;;9.28;74.32
64368;BME280;50692;53.314;-6.300;2023-03-24T07:43:42;98428.81;;;9.48;73.30
64368;BME280;50692;53.314;-6.300;2023-03-24T07:46:27;98439.50;;;9.77;72.87
64368;BME280;50692;53.314;-6.300;2023-03-24T07:49:11;98412.44;;;9.75;71.66
64368;BME280;50692;53.314;-6.300;2023-03-24T07:51:57;98432.59;;;10.16;71.20
64368;BME280;50692;53.314;-6.300;2023-03-24T07:54:42;98424.28;;;10.21;70.15
64368;BME280;50692;53.314;-6.300;2023-03-24T07:57:25;98422.81;;;10.28;69.21
64368;BME280;50692;53.314;-6.300;2023-03-24T08:00:10;98437.56;;;10.40;68.83
64368;BME280;50692;53.314;-6.300;2023-03-24T08:02:58;98433.41;;;10.17;68.67
64368;BME280;50692;53.314;-6.300;2023-03-24T08:05:46;98440.50;;;10.16;69.30
64368;BME280;50692;53.314;-6.300;2023-03-24T08:08:30;98452.19;;;10.14;69.78
64368;BME280;50692;53.314;-6.300;2023-03-24T08:11:16;98452.56;;;10.09;69.94
64368;BME280;50692;53.314;-6.300;2023-03-24T08:14:06;98429.72;;;9.89;70.65
64368;BME280;50692;53.314;-6.300;2023-03-24T08:16:52;98441.06;;;10.10;70.93
64368;BME280;50692;53.314;-6.300;2023-03-24T08:19:36;98418.81;;;10.13;70.51
64368;BME280;50692;53.314;-6.300;2023-03-24T08:22:21;98430.94;;;10.15;70.48
64368;BME280;50692;53.314;-6.300;2023-03-24T08:25:06;98421.72;;;10.00;70.73
64368;BME280;50692;53.314;-6.300;2023-03-24T08:27:51;98421.31;;;10.04;70.74
64368;BME280;50692;53.314;-6.300;2023-03-24T08:30:35;98434.75;;;10.32;70.83
64368;BME280;50692;53.314;-6.300;2023-03-24T08:33:20;98404.47;;;10.36;70.18
64368;BME280;50692;53.314;-6.300;2023-03-24T08:36:06;98427.06;;;10.79;68.50
64368;BME280;50692;53.314;-6.300;2023-03-24T08:38:56;98420.22;;;11.05;66.87
64368;BME280;50692;53.314;-6.300;2023-03-24T08:41:42;98407.84;;;10.96;65.92
64368;BME280;50692;53.314;-6.300;2023-03-24T08:44:29;98429.13;;;11.14;65.98
64368;BME280;50692;53.314;-6.300;2023-03-24T08:47:20;98416.03;;;11.32;65.42
64368;BME280;50692;53.314;-6.300;2023-03-24T08:50:08;98406.78;;;11.46;64.82
64368;BME280;50692;53.314;-6.300;2023-03-24T08:52:54;98411.75;;;11.68;63.84
64368;BME280;50692;53.314;-6.300;2023-03-24T08:55:40;98394.91;;;11.60;63.86
64368;BME280;50692;53.314;-6.300;2023-03-24T08:58:26;98427.16;;;11.92;63.79
64368;BME280;50692;53.314;-6.300;2023-03-24T09:01:22;98416.81;;;12.27;62.45
64368;BME280;50692;53.314;-6.300;2023-03-24T09:04:07;98395.41;;;12.38;60.98
64368;BME280;50692;53.314;-6.300;2023-03-24T09:06:52;98414.16;;;12.54;60.33
64368;BME280;50692;53.314;-6.300;2023-03-24T09:09:37;98411.50;;;12.72;59.86
64368;BME280;50692;53.314;-6.300;2023-03-24T09:12:22;98380.53;;;12.55;58.93
64368;BME280;50692;53.314;-6.300;2023-03-24T09:15:10;98408.63;;;12.65;59.38
64368;BME280;50692;53.314;-6.300;2023-03-24T09:17:55;98412.03;;;12.93;59.27
64368;BME280;50692;53.314;-6.300;2023-03-24T09:20:39;98418.75;;;13.06;58.25
64368;BME280;50692;53.314;-6.300;2023-03-24T09:23:24;98412.59;;;13.41;57.41
64368;BME280;50692;53.314;-6.300;2023-03-24T09:26:08;98395.78;;;13.32;57.29
64368;BME280;50692;53.314;-6.300;2023-03-24T09:28:53;98389.88;;;13.38;56.23
64368;BME280;50692;53.314;-6.300;2023-03-24T09:31:37;98422.09;;;13.70;55.37
64368;BME280;50692;53.314;-6.300;2023-03-24T09:34:10;98422.09;;;13.70;54.82
64368;BME280;50692;53.314;-6.300;2023-03-24T09:36:55;98405.25;;;13.61;55.42
64368;BME280;50692;53.314;-6.300;2023-03-24T09:39:40;98427.31;;;13.87;54.81
64368;BME280;50692;53.314;-6.300;2023-03-24T09:42:27;98419.28;;;14.05;54.62
64368;BME280;50692;53.314;-6.300;2023-03-24T09:45:16;98384.47;;;14.25;52.82
64368;BME280;50692;53.314;-6.300;2023-03-24T09:48:10;98377.56;;;14.40;52.62
64368;BME280;50692;53.314;-6.300;2023-03-24T09:56:53;98385.38;;;14.42;50.58
64368;BME280;50692;53.314;-6.300;2023-03-24T09:59:38;98350.56;;;14.10;50.37
64368;BME280;50692;53.314;-6.300;2023-03-24T10:02:27;98385.84;;;14.37;50.41
64368;BME280;50692;53.314;-6.300;2023-03-24T10:05:14;98359.78;;;14.40;49.69
64368;BME280;50692;53.314;-6.300;2023-03-24T10:08:26;98372.00;;;14.84;49.39
64368;BME280;50692;53.314;-6.300;2023-03-24T10:16:53;98375.16;;;14.79;49.45
64368;BME280;50692;53.314;-6.300;2023-03-24T10:22:43;98353.06;;;14.87;49.20
64368;BME280;50692;53.314;-6.300;2023-03-24T10:25:53;98355.88;;;14.85;48.71
64368;BME280;50692;53.314;-6.300;2023-03-24T10:31:46;98368.19;;;15.03;47.98
64368;BME280;50692;53.314;-6.300;2023-03-24T10:34:32;98348.88;;;14.93;48.75
64368;BME280;50692;53.314;-6.300;2023-03-24T10:37:17;98351.06;;;14.89;48.70
64368;BME280;50692;53.314;-6.300;2023-03-24T10:40:12;98348.22;;;14.66;49.34
64368;BME280;50692;53.314;-6.300;2023-03-24T10:42:58;98347.22;;;15.00;49.45
64368;BME280;50692;53.314;-6.300;2023-03-24T10:45:47;98328.78;;;14.98;49.01
64368;BME280;50692;53.314;-6.300;2023-03-24T10:51:50;98317.66;;;14.78;49.83
64368;BME280;50692;53.314;-6.300;2023-03-24T10:54:36;98299.22;;;14.77;49.45
64368;BME280;50692;53.314;-6.300;2023-03-24T10:57:22;98316.47;;;15.05;49.78
64368;BME280;50692;53.314;-6.300;2023-03-24T11:00:13;98321.31;;;15.02;49.63
64368;BME280;50692;53.314;-6.300;2023-03-24T11:06:16;98312.47;;;15.26;49.40
64368;BME280;50692;53.314;-6.300;2023-03-24T11:09:19;98305.84;;;15.77;47.74
64368;BME280;50692;53.314;-6.300;2023-03-24T11:12:27;98295.88;;;15.63;47.09
64368;BME280;50692;53.314;-6.300;2023-03-24T11:18:14;98283.81;;;15.36;47.84
64368;BME280;50692;53.314;-6.300;2023-03-24T11:21:01;98297.22;;;15.59;48.28
64368;BME280;50692;53.314;-6.300;2023-03-24T11:23:49;98290.78;;;15.93;46.91
64368;BME280;50692;53.314;-6.300;2023-03-24T11:26:36;98287.56;;;15.97;46.34
64368;BME280;50692;53.314;-6.300;2023-03-24T11:29:24;98261.19;;;15.32;47.74
64368;BME280;50692;53.314;-6.300;2023-03-24T11:32:13;98286.22;;;15.70;47.74
64368;BME280;50692;53.314;-6.300;2023-03-24T11:35:07;98308.41;;;15.94;47.56
64368;BME280;50692;53.314;-6.300;2023-03-24T11:38:03;98321.88;;;16.31;46.63
64368;BME280;50692;53.314;-6.300;2023-03-24T11:40:54;98304.81;;;16.41;46.08
64368;BME280;50692;53.314;-6.300;2023-03-24T11:43:41;98313.19;;;16.29;46.37
64368;BME280;50692;53.314;-6.300;2023-03-24T11:46:24;98271.78;;;16.19;46.80
64368;BME280;50692;53.314;-6.300;2023-03-24T11:49:12;98305.84;;;16.63;46.93
64368;BME280;50692;53.314;-6.300;2023-03-24T11:51:59;98290.72;;;16.55;46.37
64368;BME280;50692;53.314;-6.300;2023-03-24T11:54:45;98282.47;;;16.65;46.89
64368;BME280;50692;53.314;-6.300;2023-03-24T11:57:42;98285.44;;;17.08;45.68
64368;BME280;50692;53.314;-6.300;2023-03-24T12:22:37;98224.31;;;17.57;42.72
64368;BME280;50692;53.314;-6.300;2023-03-24T12:25:41;98238.06;;;17.54;42.63
64368;BME280;50692;53.314;-6.300;2023-03-24T12:28:56;98202.53;;;17.90;42.18
64368;BME280;50692;53.314;-6.300;2023-03-24T12:56:44;98206.38;;;17.51;38.86
64368;BME280;50692;53.314;-6.300;2023-03-24T12:59:39;98246.97;;;16.64;43.29
64368;BME280;50692;53.314;-6.300;2023-03-24T13:02:29;98246.34;;;16.62;45.02
64368;BME280;50692;53.314;-6.300;2023-03-24T13:05:37;98230.88;;;17.10;44.41
64368;BME280;50692;53.314;-6.300;2023-03-24T13:08:24;98227.84;;;17.43;43.23
64368;BME280;50692;53.314;-6.300;2023-03-24T13:11:18;98209.88;;;17.66;42.47
64368;BME280;50692;53.314;-6.300;2023-03-24T13:14:11;98199.69;;;17.91;41.05
64368;BME280;50692;53.314;-6.300;2023-03-24T13:17:03;98201.13;;;18.30;40.77
64368;BME280;50692;53.314;-6.300;2023-03-24T13:19:50;98198.34;;;18.45;39.18
64368;BME280;50692;53.314;-6.300;2023-03-24T13:22:38;98222.59;;;18.01;39.03
64368;BME280;50692;53.314;-6.300;2023-03-24T13:25:28;98212.88;;;18.14;39.36
64368;BME280;50692;53.314;-6.300;2023-03-24T13:28:26;98200.69;;;18.33;38.27
64368;BME280;50692;53.314;-6.300;2023-03-24T13:31:11;98212.16;;;17.84;39.19
64368;BME280;50692;53.314;-6.300;2023-03-24T13:33:58;98257.78;;;16.48;42.23
64368;BME280;50692;53.314;-6.300;2023-03-24T13:36:46;98261.31;;;14.67;59.48
64368;BME280;50692;53.314;-6.300;2023-03-24T13:39:33;98266.81;;;13.82;63.60
64368;BME280;50692;53.314;-6.300;2023-03-24T13:42:29;98259.66;;;13.32;63.60
64368;BME280;50692;53.314;-6.300;2023-03-24T13:48:40;98266.66;;;12.63;64.34
64368;BME280;50692;53.314;-6.300;2023-03-24T13:51:29;98255.78;;;12.48;63.93
64368;BME280;50692;53.314;-6.300;2023-03-24T13:54:25;98235.97;;;12.16;65.83
64368;BME280;50692;53.314;-6.300;2023-03-24T13:57:16;98285.00;;;12.38;67.71
64368;BME280;50692;53.314;-6.300;2023-03-24T14:03:14;98283.88;;;11.50;73.15
64368;BME280;50692;53.314;-6.300;2023-03-24T14:11:43;98307.03;;;10.72;83.97
64368;BME280;50692;53.314;-6.300;2023-03-24T14:14:29;98311.22;;;10.45;86.56
64368;BME280;50692;53.314;-6.300;2023-03-24T14:17:16;98295.91;;;10.49;88.58
64368;BME280;50692;53.314;-6.300;2023-03-24T14:22:50;98261.06;;;11.67;83.18
64368;BME280;50692;53.314;-6.300;2023-03-24T14:25:36;98268.56;;;12.17;79.30
64368;BME280;50692;53.314;-6.300;2023-03-24T14:28:57;98290.44;;;12.99;74.80
64368;BME280;50692;53.314;-6.300;2023-03-24T14:31:41;98266.28;;;13.70;69.44
64368;BME280;50692;53.314;-6.300;2023-03-24T14:34:30;98237.84;;;13.46;64.73
64368;BME280;50692;53.314;-6.300;2023-03-24T14:37:17;98259.66;;;13.06;65.65
64368;BME280;50692;53.314;-6.300;2023-03-24T14:40:02;98270.00;;;12.91;65.31
64368;BME280;50692;53.314;-6.300;2023-03-24T14:42:53;98259.78;;;12.52;67.23
64368;BME280;50692;53.314;-6.300;2023-03-24T14:57:50;98252.47;;;14.99;59.61
64368;BME280;50692;53.314;-6.300;2023-03-24T15:00:57;98243.38;;;14.52;59.20
64368;BME280;50692;53.314;-6.300;2023-03-24T15:06:43;98248.22;;;14.65;59.09
64368;BME280;50692;53.314;-6.300;2023-03-24T15:09:29;98248.53;;;14.54;60.38
64368;BME280;50692;53.314;-6.300;2023-03-24T15:12:13;98232.03;;;14.09;61.37
64368;BME280;50692;53.314;-6.300;2023-03-24T15:14:59;98247.69;;;13.62;61.27
64368;BME280;50692;53.314;-6.300;2023-03-24T15:17:27;98250.06;;;13.39;62.26
64368;BME280;50692;53.314;-6.300;2023-03-24T15:20:26;98243.34;;;13.18;62.54
64368;BME280;50692;53.314;-6.300;2023-03-24T15:23:20;98249.22;;;13.30;62.89
64368;BME280;50692;53.314;-6.300;2023-03-24T15:26:11;98249.81;;;12.90;63.38
64368;BME280;50692;53.314;-6.300;2023-03-24T15:29:05;98279.59;;;12.66;62.92
64368;BME280;50692;53.314;-6.300;2023-03-24T15:31:50;98269.50;;;12.43;63.01
64368;BME280;50692;53.314;-6.300;2023-03-24T15:34:44;98264.75;;;12.73;61.46
64368;BME280;50692;53.314;-6.300;2023-03-24T15:37:30;98266.53;;;12.64;63.85
64368;BME280;50692;53.314;-6.300;2023-03-24T15:43:17;98266.53;;;13.93;61.73
64368;BME280;50692;53.314;-6.300;2023-03-24T15:46:02;98257.44;;;14.12;61.42
64368;BME280;50692;53.314;-6.300;2023-03-24T15:48:48;98254.75;;;13.96;60.63
64368;BME280;50692;53.314;-6.300;2023-03-24T15:52:02;98268.22;;;14.02;61.19
64368;BME280;50692;53.314;-6.300;2023-03-24T15:54:51;98264.53;;;13.87;59.57
64368;BME280;50692;53.314;-6.300;2023-03-24T15:57:39;98245.25;;;13.77;60.69
64368;BME280;50692;53.314;-6.300;2023-03-24T16:00:34;98261.31;;;13.75;59.35
64368;BME280;50692;53.314;-6.300;2023-03-24T16:03:21;98250.25;;;13.37;60.94
64368;BME280;50692;53.314;-6.300;2023-03-24T16:06:14;98252.28;;;12.91;62.89
64368;BME280;50692;53.314;-6.300;2023-03-24T16:08:59;98243.78;;;12.80;62.86
64368;BME280;50692;53.314;-6.300;2023-03-24T16:11:45;98264.84;;;12.63;63.43
64368;BME280;50692;53.314;-6.300;2023-03-24T16:14:29;98277.56;;;12.42;63.43
64368;BME280;50692;53.314;-6.300;2023-03-24T16:17:15;98251.94;;;12.07;64.28
64368;BME280;50692;53.314;-6.300;2023-03-24T16:19:59;98262.38;;;11.90;65.35
64368;BME280;50692;53.314;-6.300;2023-03-24T16:22:43;98262.38;;;11.90;64.53
64368;BME280;50692;53.314;-6.300;2023-03-24T16:25:27;98270.69;;;11.95;64.59
64368;BME280;50692;53.314;-6.300;2023-03-24T16:28:12;98283.50;;;12.18;64.06
64368;BME280;50692;53.314;-6.300;2023-03-24T16:31:01;98263.25;;;12.53;62.52
64368;BME280;50692;53.314;-6.300;2023-03-24T16:33:45;98256.00;;;12.55;61.37
64368;BME280;50692;53.314;-6.300;2023-03-24T16:36:29;98265.31;;;12.59;60.57
64368;BME280;50692;53.314;-6.300;2023-03-24T16:39:16;98260.63;;;12.96;59.06
64368;BME280;50692;53.314;-6.300;2023-03-24T16:42:00;98257.50;;;13.01;57.78
64368;BME280;50692;53.314;-6.300;2023-03-24T16:44:44;98276.09;;;12.83;59.04
64368;BME280;50692;53.314;-6.300;2023-03-24T16:47:29;98276.28;;;12.64;59.43
64368;BME280;50692;53.314;-6.300;2023-03-24T16:53:08;98272.91;;;12.00;61.16
64368;BME280;50692;53.314;-6.300;2023-03-24T16:55:52;98252.47;;;11.65;62.86
64368;BME280;50692;53.314;-6.300;2023-03-24T16:58:36;98279.13;;;11.53;63.91
64368;BME280;50692;53.314;-6.300;2023-03-24T17:03:58;98285.16;;;11.64;62.79
64368;BME280;50692;53.314;-6.300;2023-03-24T17:06:26;98287.00;;;11.36;63.65
64368;BME280;50692;53.314;-6.300;2023-03-24T17:08:52;98297.88;;;11.23;64.40
64368;BME280;50692;53.314;-6.300;2023-03-24T17:11:39;98303.81;;;10.97;65.77
64368;BME280;50692;53.314;-6.300;2023-03-24T17:14:23;98306.06;;;10.83;66.35
64368;BME280;50692;53.314;-6.300;2023-03-24T17:17:11;98312.16;;;10.83;66.73
64368;BME280;50692;53.314;-6.300;2023-03-24T17:19:42;98303.69;;;10.79;66.82
64368;BME280;50692;53.314;-6.300;2023-03-24T17:22:08;98318.44;;;10.72;67.22